Notice: iconv(): Detected an illegal character in input string in /home/meteolat/www/weather28/wsLangFunctions.php on line 115

Notice: iconv(): Detected an illegal character in input string in /home/meteolat/www/weather28/wsLangFunctions.php on line 115
Météorologique de l'aéroport - Météo La Turballe
Notice: Undefined index: wuKey in /home/meteolat/www/weather28/wuforecast/wualmanac.php on line 27

Il s'agit d'un problème de communication. Allez directement sur le site Meteoalarm : www.meteoalarm.eu et vérifier les avertissements météorologiques..


Visitez nos sites météorologiques autres:

Template documentation
and downloads

And another site



Rapports METAR proximité

   
EHVK - Volkel Rnlafb, Netherlands
Distance: SO 18 km
Mise à jour: 27-11-2022 12:25
Bruine, Nuageux  
Bruine, Nuageux  
   Vent: SE 13 km/h
Vent: SE 13 km/h
Température: 7°C
éolien: 4°C
Point de rosée: 5°C
Humidité: 87%
Baromètre: 1019 hPa
Nuageux: Nuageux
visibilité: More than 10 km
Détails des nuages: Nuageux 4500 ft
EHVK 271125Z AUTO 14007KT 110V180 9999 DZ OVC045 07/05 Q1019 BLU
EDLV - Niederrhein, Germany
Distance: SE 25 km
Mise à jour: 27-11-2022 12:20
Pluie faible, Partiellement nuageux  
Pluie faible, Partiellement nuageux  
   Vent: SSE 13 km/h
Vent: SSE 13 km/h
Température: 7°C
éolien: 4°C
Point de rosée: 5°C
Humidité: 87%
Baromètre: 1020 hPa
Nuageux: Partiellement nuageux
visibilité: More than 10 km
Détails des nuages: Partiellement nuageux
EDLV 271120Z 15007KT 9999 -RA NSC 07/05 Q1020
EHDL - Deelen Rnlafb, Netherlands
Distance: N 35 km
Mise à jour: 27-11-2022 12:25
Nuageux  
Nuageux  
   Vent: SSE 13 km/h
Vent: SSE 13 km/h
Température: 6°C
éolien: 3°C
Point de rosée: 5°C
Humidité: 93%
Baromètre: 1019 hPa
Nuageux: Nuageux
visibilité: More than 10 km
Détails des nuages: Nuageux 4300 ft
EHDL 271125Z AUTO 15007KT 090V240 9999 OVC043 06/05 Q1019 BLU
EHEH - Eindhoven Rnlafb, Netherlands
Distance: SO 48 km
Mise à jour: 27-11-2022 12:25
Faible bruine, Nuageux  
Faible bruine, Nuageux  
   Vent: SSE 11.1 km/h
Vent: SSE 11.1 km/h
Température: 7°C
éolien: 5°C
Point de rosée: 6°C
Humidité: 93%
Baromètre: 1019 hPa
Nuageux: Nuageux
visibilité: More than 10 km
Détails des nuages: Nuageux 4100 ft
EHEH 271125Z AUTO 16006KT 130V200 9999 -DZ OVC041 07/06 Q1019 REDZ BLU NOSIG
EHGR - Gilze-Rijen Rnla, Netherlands
Distance: OSO 70 km
Mise à jour: 27-11-2022 12:25
Nuageux  
Nuageux  
   Vent: Sud 18.5 km/h
Vent: Sud 18.5 km/h
Température: 8°C
éolien: 5°C
Point de rosée: 5°C
Humidité: 82%
Baromètre: 1018 hPa
Nuageux: Nuageux
visibilité: More than 10 km
Détails des nuages: Peu de nuages 2700 ft,
Nuageux 3200 ft,
Nuageux 3600 ft
EHGR 271125Z AUTO 17010KT 120V200 9999 FEW027 BKN032 OVC036 08/05 Q1018 BLU
EBBL - Kleine-Brogel(Ba, Belgium
Distance: SSO 71 km
Mise à jour: 27-11-2022 12:25
Pluie faible, Nuageux  
Pluie faible, Nuageux  
   Vent: SSE 5.6 km/h
Vent: SSE 5.6 km/h
Température: 8°C
éolien: 7°C
Point de rosée: 5°C
Humidité: 82%
Baromètre: 1019 hPa
Nuageux: Nuageux
visibilité: More than 10 km
Détails des nuages: Nuageux 5000 ft
EBBL 271125Z AUTO 16003KT 9999 -RA OVC050/// 08/05 Q1019 BLU

Script développé par  Saratoga-weather.org Adapté pour le modèle par  Weerstation Leuven

Équipement que nous utilisons:

Station de Météo
Davis Vantage Pro2

Davis Vantage Pro2